Weather at Marj al-Sultan Heliport (South)

Public forecast

Using degrees Celsius for public forecast. Weather courtesy of forecast.io.

Closest aviation weather report (METAR) to Marj al-Sultan Heliport (South)

Closest report is Damascus International Airport, 5.0 nm (9.2 km) SSE.

2024/05/30 22:00 (retrieved 11 minutes ago)

OSDI 302200Z 21011KT CAVOK 16/11 Q1015

Closest aviation forecast (TAF) to Marj al-Sultan Heliport (South)

Forecast is more than 6 hours old.

Closest forecast is Damascus International Airport, 5.0 nm (9.2 km) SSE.

2024/05/30 12:12 (retrieved 10 hours ago)

TAF OSDI 301100Z 3012/3118 22010KT 8000 FEW030 TEMPO 3012/3118 22015G25KT 8000 FEW030